El-djazair II — 7TBR — position and weather

sailwx.info

Track history (hours):
 
Tides and Currents Weather Stations Pressure Air Temp Water Temp Dewpoint Dewpoint Depression Visibility Wind Speed Wind Dir Waves Ship Positions

El-djazair II

Last reported at 2016-Jul-24 12:30 UTC. Time now 2016-Jul-24 16:37 UTC.
Position N 43°08' E 005°14'.

Length 146 m; draft 6.3 m.

Type: Passenger vessel. MMSI: 605026190.

Date/timePositionNaut miles runAvg speedWind from/ knotsBaromVisibWave heightAir tempDewpointWater temp
2016-Jul-24 12:30N 43°08' E 005°14'310 7.9
2016-Jul-22 21:08N 38°07' E 006°45'28912.0
2016-Jul-21 21:07N 42°45' E 008°28'1322.5
2016-Jul-21 20:33N 42°58' E 008°31'2222.3
2016-Jul-21 19:33N 43°19' E 008°38'2322.5
2016-Jul-21 18:33N 43°41' E 008°45'2322.8
2016-Jul-21 17:33N 44°03' E 008°53'1919.3
2016-Jul-21 16:33N 44°22' E 008°57'3 2.8
2016-Jul-21 15:33N 44°25' E 008°55'0 0.0
2016-Jul-21 14:33N 44°25' E 008°55'0 0.0
2016-Jul-21 13:33N 44°25' E 008°55'0 0.1
2016-Jul-21 12:33N 44°25' E 008°55'8 8.4
2016-Jul-21 11:34N 44°17' E 008°58'2323.3
2016-Jul-21 10:34N 43°54' E 008°51'2323.3
2016-Jul-21 09:34N 43°31' E 008°45'2423.3
2016-Jul-21 08:33N 43°08' E 008°38'2323.5
2016-Jul-21 07:33N 42°45' E 008°31'2323.3
2016-Jul-21 06:33N 42°23' E 008°24'2423.4
2016-Jul-21 05:31N 41°59' E 008°18'30422.7
2016-Jul-20 16:06N 37°01' E 006°56'70 7.2
2016-Jul-20 06:26N 38°09' E 006°35'2122.6
2016-Jul-20 05:30N 38°30' E 006°29'18122.7
2016-Jul-19 21:30N 41°28' E 005°45'2122.4
2016-Jul-19 20:33N 41°49' E 005°40'2222.4
2016-Jul-19 19:34N 42°11' E 005°34'2322.6
2016-Jul-19 18:33N 42°33' E 005°28'4421.9
2016-Jul-19 16:33N 43°16' E 005°20'2 0.5
2016-Jul-19 12:21N 43°18' E 005°22'810.2
2016-Jul-19 11:34N 43°11' E 005°15'6922.8
2016-Jul-19 08:31N 42°13' E 004°24'2423.0
2016-Jul-19 07:28N 41°53' E 004°07'6622.7
2016-Jul-19 04:33N 40°56' E 003°20'2322.8
2016-Jul-19 03:33N 40°37' E 003°05'2322.7
2016-Jul-19 02:33N 40°18' E 002°48'2323.2
2016-Jul-19 01:33N 39°59' E 002°32'2423.6
2016-Jul-19 00:33N 39°39' E 002°14'2322.9
2016-Jul-18 23:33N 39°18' E 002°03'2322.8
2016-Jul-18 22:33N 38°57' E 001°51'2222.6
2016-Jul-18 21:33N 38°37' E 001°39'2322.7
2016-Jul-18 20:33N 38°17' E 001°24'2622.1
2016-Jul-18 19:23N 37°56' E 001°05'1922.5
2016-Jul-18 18:33N 37°40' E 000°52'2322.2
2016-Jul-18 17:32N 37°21' E 000°37'2222.4
2016-Jul-18 16:33N 37°03' E 000°22'2322.6
2016-Jul-18 15:32N 36°43' E 000°08'2621.2
2016-Jul-18 14:17N 36°20' W 000°09'2321.5
2016-Jul-18 13:13N 36°01' W 000°25'10 1.1
2016-Jul-18 04:21N 36°10' W 000°29'1312.9
2016-Jul-18 03:19N 36°23' W 000°26'1412.9
2016-Jul-18 02:16N 36°36' W 000°22'3813.7
2016-Jul-17 23:29N 37°14' W 000°12'3014.0
2016-Jul-17 21:19N 37°43' W 000°03'1114.0
2016-Jul-17 20:33N 37°54' E 000°00'1211.9
2016-Jul-17 19:31N 38°06' W 000°04'2121.3
2016-Jul-17 18:32N 38°17' W 000°26'16 1.1
2016-Jul-17 04:05N 38°17' W 000°06'3412.6
2016-Jul-17 01:26N 37°44' W 000°15'102 3.3
2016-Jul-15 18:33N 39°26' W 000°19'1 1.3
2016-Jul-15 17:33N 39°27' W 000°20'0 0.0
2016-Jul-15 16:33N 39°27' W 000°20'0 0.0
2016-Jul-15 15:33N 39°27' W 000°20'0 0.0
2016-Jul-15 14:33N 39°27' W 000°20'0 0.0
2016-Jul-15 13:33N 39°27' W 000°20'0 0.0
2016-Jul-15 12:33N 39°27' W 000°20'0 0.0
2016-Jul-15 11:33N 39°27' W 000°20'0 0.0
2016-Jul-15 10:33N 39°27' W 000°20'0 0.0
2016-Jul-15 09:33N 39°27' W 000°20'0 0.0
2016-Jul-15 08:33N 39°27' W 000°20'2612.2
2016-Jul-15 06:24N 39°10' E 000°05'9619.8
2016-Jul-15 01:33N 37°34' E 000°21'2222.2
2016-Jul-15 00:33N 37°12' E 000°17'2222.2
2016-Jul-14 23:33N 36°50' E 000°14'2121.5
2016-Jul-14 22:33N 36°29' E 000°10'33 9.6
2016-Jul-14 19:06N 35°56' E 000°05'  
Track history (hours):
 
Tides and Currents Weather Stations Pressure Air Temp Water Temp Dewpoint Dewpoint Depression Visibility Wind Speed Wind Dir Waves Ship Positions

El-djazair II

Last reported at 2016-Jul-24 12:30 UTC. Time now 2016-Jul-24 16:37 UTC.
Position N 43°08' E 005°14'.

Length 146 m; draft 6.3 m.

Type: Passenger vessel. MMSI: 605026190.

Date/timePositionNaut miles runAvg speedWind from/ knotsBaromVisibWave heightAir tempDewpointWater temp
2016-Jul-24 12:30N 43°08' E 005°14'310 7.9
2016-Jul-22 21:08N 38°07' E 006°45'28912.0
2016-Jul-21 21:07N 42°45' E 008°28'1322.5
2016-Jul-21 20:33N 42°58' E 008°31'2222.3
2016-Jul-21 19:33N 43°19' E 008°38'2322.5
2016-Jul-21 18:33N 43°41' E 008°45'2322.8
2016-Jul-21 17:33N 44°03' E 008°53'1919.3
2016-Jul-21 16:33N 44°22' E 008°57'3 2.8
2016-Jul-21 15:33N 44°25' E 008°55'0 0.0
2016-Jul-21 14:33N 44°25' E 008°55'0 0.0
2016-Jul-21 13:33N 44°25' E 008°55'0 0.1
2016-Jul-21 12:33N 44°25' E 008°55'8 8.4
2016-Jul-21 11:34N 44°17' E 008°58'2323.3
2016-Jul-21 10:34N 43°54' E 008°51'2323.3
2016-Jul-21 09:34N 43°31' E 008°45'2423.3
2016-Jul-21 08:33N 43°08' E 008°38'2323.5
2016-Jul-21 07:33N 42°45' E 008°31'2323.3
2016-Jul-21 06:33N 42°23' E 008°24'2423.4
2016-Jul-21 05:31N 41°59' E 008°18'30422.7
2016-Jul-20 16:06N 37°01' E 006°56'70 7.2
2016-Jul-20 06:26N 38°09' E 006°35'2122.6
2016-Jul-20 05:30N 38°30' E 006°29'18122.7
2016-Jul-19 21:30N 41°28' E 005°45'2122.4
2016-Jul-19 20:33N 41°49' E 005°40'2222.4
2016-Jul-19 19:34N 42°11' E 005°34'2322.6
2016-Jul-19 18:33N 42°33' E 005°28'4421.9
2016-Jul-19 16:33N 43°16' E 005°20'2 0.5
2016-Jul-19 12:21N 43°18' E 005°22'810.2
2016-Jul-19 11:34N 43°11' E 005°15'6922.8
2016-Jul-19 08:31N 42°13' E 004°24'2423.0
2016-Jul-19 07:28N 41°53' E 004°07'6622.7
2016-Jul-19 04:33N 40°56' E 003°20'2322.8
2016-Jul-19 03:33N 40°37' E 003°05'2322.7
2016-Jul-19 02:33N 40°18' E 002°48'2323.2
2016-Jul-19 01:33N 39°59' E 002°32'2423.6
2016-Jul-19 00:33N 39°39' E 002°14'2322.9
2016-Jul-18 23:33N 39°18' E 002°03'2322.8
2016-Jul-18 22:33N 38°57' E 001°51'2222.6
2016-Jul-18 21:33N 38°37' E 001°39'2322.7
2016-Jul-18 20:33N 38°17' E 001°24'2622.1
2016-Jul-18 19:23N 37°56' E 001°05'1922.5
2016-Jul-18 18:33N 37°40' E 000°52'2322.2
2016-Jul-18 17:32N 37°21' E 000°37'2222.4
2016-Jul-18 16:33N 37°03' E 000°22'2322.6
2016-Jul-18 15:32N 36°43' E 000°08'2621.2
2016-Jul-18 14:17N 36°20' W 000°09'2321.5
2016-Jul-18 13:13N 36°01' W 000°25'10 1.1
2016-Jul-18 04:21N 36°10' W 000°29'1312.9
2016-Jul-18 03:19N 36°23' W 000°26'1412.9
2016-Jul-18 02:16N 36°36' W 000°22'3813.7
2016-Jul-17 23:29N 37°14' W 000°12'3014.0
2016-Jul-17 21:19N 37°43' W 000°03'1114.0
2016-Jul-17 20:33N 37°54' E 000°00'1211.9
2016-Jul-17 19:31N 38°06' W 000°04'2121.3
2016-Jul-17 18:32N 38°17' W 000°26'16 1.1
2016-Jul-17 04:05N 38°17' W 000°06'3412.6
2016-Jul-17 01:26N 37°44' W 000°15'102 3.3
2016-Jul-15 18:33N 39°26' W 000°19'1 1.3
2016-Jul-15 17:33N 39°27' W 000°20'0 0.0
2016-Jul-15 16:33N 39°27' W 000°20'0 0.0
2016-Jul-15 15:33N 39°27' W 000°20'0 0.0
2016-Jul-15 14:33N 39°27' W 000°20'0 0.0
2016-Jul-15 13:33N 39°27' W 000°20'0 0.0
2016-Jul-15 12:33N 39°27' W 000°20'0 0.0
2016-Jul-15 11:33N 39°27' W 000°20'0 0.0
2016-Jul-15 10:33N 39°27' W 000°20'0 0.0
2016-Jul-15 09:33N 39°27' W 000°20'0 0.0
2016-Jul-15 08:33N 39°27' W 000°20'2612.2
2016-Jul-15 06:24N 39°10' E 000°05'9619.8
2016-Jul-15 01:33N 37°34' E 000°21'2222.2
2016-Jul-15 00:33N 37°12' E 000°17'2222.2
2016-Jul-14 23:33N 36°50' E 000°14'2121.5
2016-Jul-14 22:33N 36°29' E 000°10'33 9.6
2016-Jul-14 19:06N 35°56' E 000°05'  

Dump ship's entire track history